createdAt,value
2022-08-24T00:01:51.239Z,99050.38
2022-08-24T00:04:18.742Z,99048.88
2022-08-24T00:06:46.191Z,99045.75
2022-08-24T00:09:13.739Z,99055.22
2022-08-24T00:11:41.310Z,99045.09
2022-08-24T00:14:09.299Z,99043.88
2022-08-24T00:16:36.904Z,99039.63
2022-08-24T00:19:05.745Z,99052.13
2022-08-24T00:21:33.871Z,99038.44
2022-08-24T00:24:03.010Z,99037.69
2022-08-24T00:26:30.828Z,99042.81
2022-08-24T00:29:01.371Z,99042.44
2022-08-24T00:31:31.588Z,99049.81
2022-08-24T00:33:59.969Z,99034.84
2022-08-24T00:36:27.606Z,99043.66
2022-08-24T00:38:55.744Z,99041.75
2022-08-24T00:41:23.484Z,99037.06
2022-08-24T00:43:58.608Z,99040.03
2022-08-24T00:46:43.622Z,99037.59
2022-08-24T00:49:34.741Z,99041.13
2022-08-24T00:52:31.629Z,99039.97
2022-08-24T00:55:06.476Z,99041.13
2022-08-24T00:57:38.827Z,99043.56
2022-08-24T01:00:12.026Z,99042.75
2022-08-24T01:02:44.045Z,99053.38
2022-08-24T01:05:12.641Z,99049.84
2022-08-24T01:07:41.077Z,99044.34
2022-08-24T01:10:16.610Z,99048.91
2022-08-24T01:12:59.975Z,99049.44
2022-08-24T01:15:33.333Z,99053.69
2022-08-24T01:18:20.767Z,99048.72
2022-08-24T01:20:59.859Z,99050.78
2022-08-24T01:23:41.611Z,99062.06
2022-08-24T01:26:18.057Z,99051.97
2022-08-24T01:28:50.181Z,99052.81
2022-08-24T01:31:20.533Z,99050.09
2022-08-24T01:33:50.093Z,99055.41
2022-08-24T01:36:33.133Z,99057.88
2022-08-24T01:39:12.790Z,99057.81
2022-08-24T01:41:40.832Z,99045.13
2022-08-24T01:44:09.696Z,99049.38
2022-08-24T01:46:37.641Z,99046.22
2022-08-24T01:49:05.798Z,99054.34
2022-08-24T01:51:34.498Z,99045.22
2022-08-24T01:54:06.101Z,99057.28
2022-08-24T01:56:34.688Z,99056.75
2022-08-24T01:59:02.953Z,99053.91
2022-08-24T02:01:34.329Z,99054.31
2022-08-24T02:04:04.911Z,99062.75
2022-08-24T02:06:33.706Z,99057.44
2022-08-24T02:09:01.826Z,99060.63
2022-08-24T02:11:33.220Z,99064.75
2022-08-24T02:14:01.349Z,99055.28
2022-08-24T02:16:29.314Z,99057.91
2022-08-24T02:18:58.297Z,99067.81
2022-08-24T02:21:26.021Z,99058.19
2022-08-24T02:23:54.149Z,99064.63
2022-08-24T02:26:21.992Z,99066.47
2022-08-24T02:28:50.079Z,99065.47
2022-08-24T02:31:17.641Z,99066.00
2022-08-24T02:33:46.243Z,99066.06
2022-08-24T02:36:26.291Z,99069.31
2022-08-24T02:38:58.240Z,99058.72
2022-08-24T02:41:26.497Z,99065.50
2022-08-24T02:43:56.338Z,99072.25
2022-08-24T02:46:27.457Z,99065.09
2022-08-24T02:49:09.984Z,99056.53
2022-08-24T02:51:44.871Z,99065.44
2022-08-24T02:54:18.531Z,99073.13
2022-08-24T02:56:48.877Z,99067.56
2022-08-24T02:59:17.443Z,99071.03
2022-08-24T03:01:45.511Z,99070.84
2022-08-24T03:04:14.569Z,99061.63
2022-08-24T03:06:42.673Z,99066.47
2022-08-24T03:09:10.537Z,99066.69
2022-08-24T03:11:39.207Z,99068.63
2022-08-24T03:14:11.401Z,99067.69
2022-08-24T03:16:39.016Z,99064.94
2022-08-24T03:19:06.754Z,99064.56
2022-08-24T03:21:36.719Z,99070.38
2022-08-24T03:24:04.341Z,99067.59
2022-08-24T03:26:32.700Z,99068.06
2022-08-24T03:29:00.592Z,99070.88
2022-08-24T03:31:30.672Z,99063.38
2022-08-24T03:33:59.641Z,99066.31
2022-08-24T03:36:27.887Z,99070.22
2022-08-24T03:38:55.531Z,99071.25
2022-08-24T03:41:23.658Z,99058.69
2022-08-24T03:43:51.423Z,99064.50
2022-08-24T03:46:25.241Z,99076.97
2022-08-24T03:48:55.191Z,99079.88
2022-08-24T03:51:26.933Z,99073.06
2022-08-24T03:53:57.385Z,99082.75
2022-08-24T03:56:28.266Z,99071.19
2022-08-24T03:58:56.744Z,99081.88
2022-08-24T04:01:26.973Z,99078.19
2022-08-24T04:03:55.563Z,99081.97
2022-08-24T04:06:28.537Z,99083.78
2022-08-24T04:08:56.865Z,99081.97
2022-08-24T04:11:28.611Z,99083.22
2022-08-24T04:13:58.280Z,99078.81
2022-08-24T04:16:27.441Z,99080.94
2022-08-24T04:19:04.987Z,99075.19
2022-08-24T04:21:35.747Z,99077.63
2022-08-24T04:24:07.911Z,99079.19
2022-08-24T04:26:44.780Z,99079.34
2022-08-24T04:29:16.933Z,99078.59
2022-08-24T04:31:49.651Z,99080.84
2022-08-24T04:34:18.729Z,99082.19
2022-08-24T04:36:47.204Z,99079.47
2022-08-24T04:39:15.820Z,99074.78
2022-08-24T04:42:06.571Z,99084.59
2022-08-24T04:44:38.350Z,99073.91
2022-08-24T04:47:06.135Z,99075.53
2022-08-24T04:49:33.860Z,99078.97
2022-08-24T04:52:01.655Z,99071.41
2022-08-24T04:54:30.032Z,99077.91
2022-08-24T04:57:18.587Z,99074.31
2022-08-24T04:59:47.885Z,99081.31
2022-08-24T05:02:15.780Z,99067.22
2022-08-24T05:04:46.539Z,99074.91
2022-08-24T05:07:14.137Z,99065.91
2022-08-24T05:09:43.993Z,99070.75
2022-08-24T05:12:12.361Z,99071.44
2022-08-24T05:14:48.193Z,99066.94
2022-08-24T05:17:15.864Z,99071.75
2022-08-24T05:19:43.836Z,99069.34
2022-08-24T05:22:11.874Z,99061.56
2022-08-24T05:24:45.023Z,99063.38
2022-08-24T05:27:14.128Z,99065.81
2022-08-24T05:29:44.279Z,99055.41
2022-08-24T05:32:13.229Z,99066.19
2022-08-24T05:34:42.095Z,99061.88
2022-08-24T05:37:10.601Z,99069.88
2022-08-24T05:39:58.360Z,99067.22
2022-08-24T05:42:26.002Z,99062.28
2022-08-24T05:44:53.622Z,99065.47
2022-08-24T05:47:23.373Z,99059.66
2022-08-24T05:49:53.974Z,99061.69
2022-08-24T05:52:22.683Z,99051.16
2022-08-24T05:54:56.049Z,99064.75
2022-08-24T05:57:25.075Z,99060.63
2022-08-24T06:00:11.569Z,99063.03
2022-08-24T06:02:50.007Z,99053.25
2022-08-24T06:05:17.647Z,99054.91
2022-08-24T06:07:45.358Z,99049.16
2022-08-24T06:10:35.385Z,99055.94
2022-08-24T06:13:01.865Z,99046.22
2022-08-24T06:15:29.337Z,99036.53
2022-08-24T06:17:56.974Z,99035.13
2022-08-24T06:20:24.531Z,99037.34
2022-08-24T06:22:52.497Z,99033.63
2022-08-24T06:25:38.583Z,99034.63
2022-08-24T06:28:06.096Z,99034.72
2022-08-24T06:30:37.353Z,99031.66
2022-08-24T06:33:15.801Z,99034.19
2022-08-24T06:35:47.596Z,99026.56
2022-08-24T06:38:15.513Z,99024.72
2022-08-24T06:40:46.315Z,99027.94
2022-08-24T06:43:14.347Z,99021.56
2022-08-24T06:45:52.912Z,99018.69
2022-08-24T06:48:24.474Z,99012.38
2022-08-24T06:50:53.838Z,99021.41
2022-08-24T06:53:22.021Z,99007.22
2022-08-24T06:55:53.324Z,99022.34
2022-08-24T06:58:22.388Z,99010.47
2022-08-24T07:00:50.468Z,99008.09
2022-08-24T07:03:21.299Z,99014.59
2022-08-24T07:06:09.626Z,99012.75
2022-08-24T07:08:42.478Z,99010.00
2022-08-24T07:11:17.921Z,99020.63
2022-08-24T07:13:49.582Z,99014.50
2022-08-24T07:16:19.719Z,99020.75
2022-08-24T07:18:51.639Z,99005.59
2022-08-24T07:21:21.617Z,98995.84
2022-08-24T07:23:55.756Z,99005.47
2022-08-24T07:26:25.932Z,99005.19
2022-08-24T07:29:05.197Z,99005.63
2022-08-24T07:31:43.164Z,99000.97
2022-08-24T07:34:17.115Z,98997.19
2022-08-24T07:36:45.849Z,98987.91
2022-08-24T07:39:14.333Z,98992.91
2022-08-24T07:42:08.982Z,98998.25
2022-08-24T07:44:32.214Z,98991.75
2022-08-24T07:47:07.239Z,98986.94
2022-08-24T07:49:43.338Z,98987.50
2022-08-24T07:52:10.929Z,98975.19
2022-08-24T07:54:38.611Z,98977.13
2022-08-24T07:57:06.952Z,98975.44
2022-08-24T07:59:36.256Z,98975.59
2022-08-24T08:02:05.510Z,98973.31
2022-08-24T08:04:33.091Z,98969.34
2022-08-24T08:07:01.971Z,98971.91
2022-08-24T08:09:32.620Z,98964.00
2022-08-24T08:12:00.337Z,98953.56
2022-08-24T08:14:28.057Z,98953.22
2022-08-24T08:16:56.238Z,98960.63
2022-08-24T08:19:24.003Z,98956.06
2022-08-24T08:22:12.368Z,98964.56
2022-08-24T08:25:02.578Z,98953.16
2022-08-24T08:27:30.620Z,98948.59
2022-08-24T08:29:59.016Z,98946.63
2022-08-24T08:32:26.565Z,98947.38
2022-08-24T08:34:55.325Z,98937.09
2022-08-24T08:37:26.214Z,98940.28
2022-08-24T08:39:55.034Z,98937.13
2022-08-24T08:42:28.948Z,98954.78
2022-08-24T08:45:14.907Z,98953.84
2022-08-24T08:47:45.822Z,98943.56
2022-08-24T08:50:28.528Z,98940.75
2022-08-24T08:53:41.865Z,98946.03
2022-08-24T08:56:28.096Z,98933.03
2022-08-24T08:59:06.421Z,98932.19
2022-08-24T09:02:01.810Z,98941.69
2022-08-24T09:04:55.550Z,98930.69
2022-08-24T09:07:31.873Z,98926.75
2022-08-24T09:10:49.981Z,98930.53
2022-08-24T09:13:44.901Z,98922.50
2022-08-24T09:16:26.029Z,98916.81
2022-08-24T09:19:22.243Z,98926.44
2022-08-24T09:22:23.267Z,98917.91
2022-08-24T09:24:55.151Z,98927.50
2022-08-24T09:28:06.354Z,98925.72
2022-08-24T09:31:08.291Z,98928.34
2022-08-24T09:33:42.111Z,98932.28
2022-08-24T09:36:27.194Z,98925.47
2022-08-24T09:39:24.816Z,98927.38
2022-08-24T09:42:01.586Z,98919.41
2022-08-24T09:44:45.011Z,98917.22
2022-08-24T09:47:50.029Z,98916.47
2022-08-24T09:50:20.534Z,98922.03
2022-08-24T09:53:24.312Z,98917.50
2022-08-24T09:55:57.776Z,98915.19
2022-08-24T09:58:58.139Z,98909.78
2022-08-24T10:01:42.957Z,98918.97
2022-08-24T10:04:19.361Z,98914.25
2022-08-24T10:07:00.237Z,98908.03
2022-08-24T10:10:23.325Z,98914.41
2022-08-24T10:12:57.872Z,98903.59
2022-08-24T10:15:44.524Z,98900.72
2022-08-24T10:18:38.768Z,98897.44
2022-08-24T10:21:19.008Z,98901.69
2022-08-24T10:24:13.743Z,98894.56
2022-08-24T10:27:04.267Z,98893.09
2022-08-24T10:29:31.750Z,98880.31
2022-08-24T10:32:20.473Z,98900.72
2022-08-24T10:35:00.861Z,98889.00
2022-08-24T10:37:41.783Z,98894.63
2022-08-24T10:40:32.281Z,98881.88
2022-08-24T10:43:35.195Z,98884.91
2022-08-24T10:46:13.479Z,98876.25
2022-08-24T10:48:59.483Z,98877.78
2022-08-24T10:51:54.306Z,98875.25
2022-08-24T10:54:23.468Z,98860.38
2022-08-24T10:57:15.540Z,98872.69
2022-08-24T11:00:01.465Z,98857.81
2022-08-24T11:02:41.811Z,98868.09
2022-08-24T11:05:31.780Z,98863.94
2022-08-24T11:08:05.353Z,98855.25
2022-08-24T11:10:36.673Z,98866.22
2022-08-24T11:13:26.036Z,98866.75
2022-08-24T11:16:00.083Z,98869.78
2022-08-24T11:18:50.575Z,98857.56
2022-08-24T11:21:35.290Z,98862.13
2022-08-24T11:24:24.611Z,98852.81
2022-08-24T11:27:07.542Z,98851.03
2022-08-24T11:29:50.114Z,98854.94
2022-08-24T11:33:01.503Z,98855.19
2022-08-24T11:35:37.788Z,98844.19
2022-08-24T11:38:19.033Z,98847.69
2022-08-24T11:41:15.703Z,98848.03
2022-08-24T11:44:04.735Z,98846.09
2022-08-24T11:46:52.182Z,98839.53
2022-08-24T11:49:37.458Z,98823.31
2022-08-24T11:52:52.072Z,98836.47
2022-08-24T11:55:46.954Z,98832.34
2022-08-24T11:58:52.353Z,98826.72
2022-08-24T12:01:19.726Z,98813.75
2022-08-24T12:04:27.480Z,98819.56
2022-08-24T12:07:09.654Z,98824.56
2022-08-24T12:09:55.620Z,98811.63
2022-08-24T12:12:34.251Z,98831.53
2022-08-24T12:15:17.949Z,98819.09
2022-08-24T12:17:49.188Z,98804.84
2022-08-24T12:20:22.915Z,98815.78
2022-08-24T12:22:54.783Z,98805.34
2022-08-24T12:25:41.364Z,98802.19
2022-08-24T12:28:10.570Z,98819.88
2022-08-24T12:30:38.111Z,98812.22
2022-08-24T12:33:14.284Z,98806.44
2022-08-24T12:35:47.069Z,98811.44
2022-08-24T12:38:26.955Z,98804.91
2022-08-24T12:40:59.087Z,98809.84
2022-08-24T12:43:42.746Z,98801.44
2022-08-24T12:46:14.227Z,98806.59
2022-08-24T12:48:44.770Z,98801.72
2022-08-24T12:51:40.033Z,98803.69
2022-08-24T12:54:33.247Z,98799.34
2022-08-24T12:57:51.682Z,98795.69
2022-08-24T13:00:28.017Z,98794.97
2022-08-24T13:03:01.621Z,98796.84
2022-08-24T13:05:48.829Z,98793.09
2022-08-24T13:08:46.173Z,98787.78
2022-08-24T13:11:17.254Z,98785.06
2022-08-24T13:14:06.014Z,98783.59
2022-08-24T13:17:06.939Z,98781.00
2022-08-24T13:19:39.013Z,98789.22
2022-08-24T13:22:13.110Z,98790.72
2022-08-24T13:24:40.515Z,98772.31
2022-08-24T13:27:14.058Z,98779.28
2022-08-24T13:29:54.173Z,98772.28
2022-08-24T13:32:31.677Z,98781.72
2022-08-24T13:34:59.780Z,98774.38
2022-08-24T13:37:29.003Z,98773.59
2022-08-24T13:40:06.081Z,98761.13
2022-08-24T13:42:44.609Z,98767.66
2022-08-24T13:45:21.362Z,98767.25
2022-08-24T13:48:01.114Z,98764.06
2022-08-24T13:51:09.714Z,98769.09
2022-08-24T13:53:49.219Z,98767.56
2022-08-24T13:56:44.508Z,98756.09
2022-08-24T13:59:37.549Z,98758.78
2022-08-24T14:02:31.389Z,98754.66
2022-08-24T14:05:25.286Z,98760.06
2022-08-24T14:08:36.566Z,98755.06
2022-08-24T14:11:33.137Z,98751.41
2022-08-24T14:14:14.973Z,98767.63
2022-08-24T14:17:19.417Z,98767.84
2022-08-24T14:19:56.933Z,98779.97
2022-08-24T14:23:01.201Z,98771.09
2022-08-24T14:25:33.948Z,98770.44
2022-08-24T14:28:01.395Z,98755.66
2022-08-24T14:30:28.808Z,98762.84
2022-08-24T14:33:02.756Z,98764.19
2022-08-24T14:35:42.478Z,98765.44
2022-08-24T14:38:23.160Z,98771.72
2022-08-24T14:41:03.370Z,98771.69
2022-08-24T14:44:04.031Z,98769.41
2022-08-24T14:46:56.272Z,98769.09
2022-08-24T14:49:46.291Z,98766.00
2022-08-24T14:52:19.464Z,98774.53
2022-08-24T14:55:15.644Z,98773.97
2022-08-24T14:58:17.537Z,98774.53
2022-08-24T15:01:11.215Z,98768.50
2022-08-24T15:03:59.975Z,98768.31
2022-08-24T15:06:39.540Z,98764.78
2022-08-24T15:09:26.420Z,98771.13
2022-08-24T15:12:13.855Z,98765.94
2022-08-24T15:14:48.143Z,98771.13
2022-08-24T15:17:26.454Z,98769.25
2022-08-24T15:20:03.820Z,98771.31
2022-08-24T15:22:49.569Z,98772.75
2022-08-24T15:25:59.675Z,98771.22
2022-08-24T15:28:31.543Z,98774.69
2022-08-24T15:31:10.955Z,98767.56
2022-08-24T15:33:53.379Z,98768.00
2022-08-24T15:36:21.188Z,98765.88
2022-08-24T15:38:48.837Z,98761.88
2022-08-24T15:41:23.437Z,98776.56
2022-08-24T15:44:05.389Z,98773.59
2022-08-24T15:46:40.599Z,98762.06
2022-08-24T15:49:17.655Z,98775.16
2022-08-24T15:51:53.543Z,98770.03
2022-08-24T15:54:24.966Z,98783.13
2022-08-24T15:57:00.230Z,98778.78
2022-08-24T15:59:45.958Z,98776.00
2022-08-24T16:02:34.264Z,98774.53
2022-08-24T16:05:19.394Z,98775.66
2022-08-24T16:08:05.306Z,98781.34
2022-08-24T16:10:47.131Z,98781.47
2022-08-24T16:13:26.820Z,98779.72
2022-08-24T16:15:59.781Z,98789.38
2022-08-24T16:18:47.240Z,98787.31
2022-08-24T16:21:41.766Z,98787.66
2022-08-24T16:24:32.593Z,98784.09
2022-08-24T16:27:08.706Z,98776.28
2022-08-24T16:29:39.534Z,98783.22
2022-08-24T16:32:21.437Z,98786.78
2022-08-24T16:35:20.934Z,98783.38
2022-08-24T16:37:48.625Z,98769.34
2022-08-24T16:40:16.453Z,98772.59
2022-08-24T16:42:44.037Z,98768.13
2022-08-24T16:45:15.233Z,98777.72
2022-08-24T16:47:43.156Z,98771.41
2022-08-24T16:50:10.534Z,98764.91
2022-08-24T16:52:38.070Z,98766.44
2022-08-24T16:55:06.577Z,98780.31
2022-08-24T16:57:37.991Z,98775.66
2022-08-24T17:00:09.853Z,98775.38
2022-08-24T17:02:37.959Z,98777.34
2022-08-24T17:05:05.894Z,98778.44
2022-08-24T17:07:34.856Z,98777.81
2022-08-24T17:10:06.131Z,98783.38
2022-08-24T17:12:36.245Z,98773.34
2022-08-24T17:15:06.470Z,98780.91
2022-08-24T17:17:34.174Z,98774.09
2022-08-24T17:20:02.323Z,98778.91
2022-08-24T17:22:31.488Z,98767.28
2022-08-24T17:24:59.011Z,98762.38
2022-08-24T17:27:31.690Z,98772.88
2022-08-24T17:30:00.890Z,98773.00
2022-08-24T17:32:28.491Z,98760.50
2022-08-24T17:34:56.034Z,98764.53
2022-08-24T17:37:23.752Z,98766.03
2022-08-24T17:39:57.226Z,98774.88
2022-08-24T17:45:13.666Z,98765.41
2022-08-24T17:47:43.592Z,98772.81
2022-08-24T17:50:14.545Z,98770.34
2022-08-24T17:52:43.848Z,98777.59
2022-08-24T17:55:12.934Z,98775.44
2022-08-24T17:57:44.512Z,98774.16
2022-08-24T18:00:14.886Z,98768.31
2022-08-24T18:02:42.746Z,98774.16
2022-08-24T18:05:12.295Z,98779.72
2022-08-24T18:07:53.045Z,98776.63
2022-08-24T18:10:24.914Z,98773.25
2022-08-24T18:12:53.405Z,98772.88
2022-08-24T18:15:21.110Z,98764.53
2022-08-24T18:17:51.994Z,98774.72
2022-08-24T18:20:25.395Z,98775.97
2022-08-24T18:22:54.409Z,98767.78
2022-08-24T18:25:26.201Z,98775.00
2022-08-24T18:27:56.068Z,98776.84
2022-08-24T18:30:30.587Z,98779.22
2022-08-24T18:33:00.203Z,98777.88
2022-08-24T18:35:28.483Z,98776.63
2022-08-24T18:37:57.614Z,98775.41
2022-08-24T18:40:29.100Z,98780.78
2022-08-24T18:43:03.216Z,98783.84
2022-08-24T18:45:33.360Z,98786.63
2022-08-24T18:48:00.960Z,98773.94
2022-08-24T18:50:29.341Z,98776.09
2022-08-24T18:52:59.104Z,98783.31
2022-08-24T18:55:27.103Z,98775.00
2022-08-24T18:57:55.399Z,98782.03
2022-08-24T19:00:23.000Z,98772.31
2022-08-24T19:02:50.655Z,98764.91
2022-08-24T19:05:24.817Z,98785.63
2022-08-24T19:07:54.795Z,98786.81
2022-08-24T19:10:25.574Z,98781.06
2022-08-24T19:13:02.432Z,98783.28
2022-08-24T19:15:39.308Z,98773.28
2022-08-24T19:18:11.413Z,98778.22
2022-08-24T19:20:48.388Z,98778.59
2022-08-24T19:23:23.604Z,98770.28
2022-08-24T19:25:51.980Z,98777.91
2022-08-24T19:28:20.045Z,98776.69
2022-08-24T19:30:49.206Z,98778.16
2022-08-24T19:33:24.118Z,98768.50
2022-08-24T19:35:52.619Z,98770.56
2022-08-24T19:38:25.142Z,98767.91
2022-08-24T19:40:53.931Z,98758.97
2022-08-24T19:43:21.421Z,98759.88
2022-08-24T19:46:04.348Z,98764.19
2022-08-24T19:48:34.363Z,98776.22
2022-08-24T19:51:05.414Z,98774.38
2022-08-24T19:53:36.650Z,98772.50
2022-08-24T19:56:05.523Z,98770.31
2022-08-24T19:58:51.009Z,98777.38
2022-08-24T20:01:21.508Z,98773.06
2022-08-24T20:03:49.912Z,98776.84
2022-08-24T20:06:21.448Z,98770.66
2022-08-24T20:08:49.879Z,98765.59
2022-08-24T20:11:18.412Z,98780.97
2022-08-24T20:13:50.360Z,98765.84
2022-08-24T20:16:19.892Z,98769.25
2022-08-24T20:18:47.734Z,98764.81
2022-08-24T20:21:16.519Z,98770.72
2022-08-24T20:23:45.072Z,98766.63
2022-08-24T20:26:14.142Z,98775.94
2022-08-24T20:28:50.219Z,98781.09
2022-08-24T20:31:19.383Z,98774.47
2022-08-24T20:33:47.382Z,98764.75
2022-08-24T20:36:24.086Z,98775.09
2022-08-24T20:38:52.454Z,98768.06
2022-08-24T20:41:19.882Z,98763.91
2022-08-24T20:43:48.060Z,98765.09
2022-08-24T20:46:16.351Z,98764.34
2022-08-24T20:48:44.887Z,98765.56
2022-08-24T20:51:13.054Z,98766.66
2022-08-24T20:53:40.537Z,98763.91
2022-08-24T20:56:12.080Z,98764.00
2022-08-24T20:58:41.061Z,98761.44
2022-08-24T21:01:08.737Z,98753.38
2022-08-24T21:03:37.057Z,98758.84
2022-08-24T21:06:05.172Z,98758.94
2022-08-24T21:08:32.910Z,98757.84
2022-08-24T21:11:00.382Z,98739.47
2022-08-24T21:13:27.842Z,98755.97
2022-08-24T21:15:55.390Z,98756.75
2022-08-24T21:18:22.909Z,98755.75
2022-08-24T21:21:04.128Z,98761.97
2022-08-24T21:23:35.594Z,98763.72
2022-08-24T21:26:06.553Z,98763.81
2022-08-24T21:28:35.940Z,98758.28
2022-08-24T21:31:06.160Z,98761.97
2022-08-24T21:33:53.394Z,98759.50
2022-08-24T21:36:23.942Z,98752.97
2022-08-24T21:38:53.537Z,98754.31
2022-08-24T21:41:22.844Z,98771.22
2022-08-24T21:43:51.821Z,98762.63
2022-08-24T21:46:19.501Z,98754.63
2022-08-24T21:48:47.158Z,98751.53
2022-08-24T21:51:14.555Z,98752.19
2022-08-24T21:53:42.475Z,98751.41
2022-08-24T21:56:10.222Z,98751.00
2022-08-24T21:58:37.678Z,98751.31
2022-08-24T22:01:05.211Z,98750.53
2022-08-24T22:03:36.978Z,98748.44
2022-08-24T22:06:11.484Z,98755.94
2022-08-24T22:08:42.556Z,98755.63
2022-08-24T22:11:12.459Z,98754.84
2022-08-24T22:13:40.680Z,98761.41
2022-08-24T22:16:08.440Z,98762.28
2022-08-24T22:18:37.427Z,98757.97
2022-08-24T22:21:14.834Z,98760.25
2022-08-24T22:23:42.399Z,98736.09
2022-08-24T22:26:10.806Z,98758.28
2022-08-24T22:28:40.960Z,98755.72
2022-08-24T22:31:19.764Z,98764.13
2022-08-24T22:33:48.840Z,98764.06
2022-08-24T22:36:16.857Z,98757.22
2022-08-24T22:38:44.845Z,98754.13
2022-08-24T22:41:12.952Z,98756.09
2022-08-24T22:43:59.708Z,98754.91
2022-08-24T22:46:27.421Z,98754.91
2022-08-24T22:48:55.149Z,98742.81
2022-08-24T22:51:22.800Z,98753.56
2022-08-24T22:53:51.596Z,98755.81
2022-08-24T22:56:20.756Z,98753.03
2022-08-24T22:58:48.498Z,98744.81
2022-08-24T23:01:31.270Z,98749.13
2022-08-24T23:04:00.235Z,98748.19
2022-08-24T23:06:28.279Z,98742.63
2022-08-24T23:08:55.895Z,98742.50
2022-08-24T23:11:27.067Z,98747.38
2022-08-24T23:13:56.767Z,98748.47
2022-08-24T23:16:26.935Z,98753.34
2022-08-24T23:19:13.153Z,98743.59
2022-08-24T23:21:41.249Z,98739.72
2022-08-24T23:24:10.119Z,98752.88
2022-08-24T23:26:39.142Z,98747.00
2022-08-24T23:29:08.486Z,98752.88
2022-08-24T23:31:37.004Z,98752.63
2022-08-24T23:34:05.648Z,98749.53
2022-08-24T23:36:33.137Z,98750.88
2022-08-24T23:39:01.121Z,98752.00
2022-08-24T23:41:31.957Z,98752.31
2022-08-24T23:44:05.189Z,98749.44
2022-08-24T23:46:32.674Z,98744.56
2022-08-24T23:49:03.520Z,98738.47
2022-08-24T23:51:31.853Z,98739.59
2022-08-24T23:53:59.772Z,98739.69
2022-08-24T23:56:32.870Z,98750.09
2022-08-24T23:59:02.641Z,98752.09
